Terminal Aerodrome Forecast
Issued by NWS Wilmington, OH

Current Version | Previous Version | Graphics & Text | Print | Product List | Glossary On
Versions: 1 2 3 4 5 6 7 8 9 10 11 12 13 14 15 16 17 18 19 20
000
FTUS41 KILN 250327 AAA
TAFDAY
TAF AMD
KDAY 250327Z 2503/2524 21010KT P6SM VCTS OVC035CB
      TEMPO 2504/2506 29010G20KT 2SM +TSRA OVC015CB
     FM250600 21008KT P6SM SCT040 BKN250
     FM251500 22012G20KT P6SM FEW040=

USA.gov is the U.S. government's official web portal to all federal, state and local government web resources and services.